Main page
METAR-TAF:

METAR-TAF

Airports :

Springfield–Branson National Airport

Springfield, Missouri, United States

latitude: 37-14-23N, longitude: 093-23-23W, elevation: 1266 ft

Current weather observation

The report was made 43 minutes ago, at 05:52 UTC
Wind 8 mph from the Southeast
Temperature 75°F
Humidity 83%
Pressure 30.24 in. Hg
Visibility: 10 miles
Clear sky

METAR: KSGF 200552Z 14007KT 10SM CLR 24/21 A3024 RMK AO2 SLP225 T02440206 10294 20244 403060211 51009

Time: 01:35 (06:35 UTC)

Forecast

The report was made 1 hour and 15 minutes ago, at 05:20 UTC
Forecast valid from 20 at 06 UTC to 21 at 06 UTC
Wind 7 mph from the Southeast
Visibility: 6 miles
Scattered clouds at a height of 25000 ft
From 20 at 1500 UTC
Wind 8 mph from the Southeast
Visibility: 6 miles
Scattered clouds at a height of 15000 ft

TAF: KSGF 200520Z 2006/2106 14006KT P6SM SCT250 FM201500 14007KT P6SM SCT150

Weather observations and forecasts of more than 4000 airports (METAR and TAF reports).

The available stations are represented by yellow and red dots on the map.

Hover mouse over dot to see the name of the station.

Then click to see weather observations and forecasts.

To change the map : click on the green buttons with a black cross to zoom in, on the green button with a dash to zoom out, or on the green arrows for adjacent maps.


METAR-TAF: